createdAt,value
2018-02-21T13:03:54.512Z,11.3
2018-02-21T13:04:56.487Z,10.4
2018-02-21T13:05:58.026Z,9.7
2018-02-21T13:06:59.401Z,10.2
2018-02-21T13:08:01.179Z,10.7
2018-02-21T13:09:02.604Z,11.2
2018-02-21T13:10:03.998Z,11.3
2018-02-21T13:11:05.420Z,11.5
2018-02-21T13:12:06.845Z,10.6
2018-02-21T13:13:08.295Z,10.2
2018-02-21T13:14:09.693Z,10.0
2018-02-21T13:15:11.139Z,9.4
2018-02-21T13:16:12.577Z,9.2
2018-02-21T13:17:14.062Z,8.8
2018-02-21T13:18:15.471Z,8.4
2018-02-21T13:19:16.881Z,8.1
2018-02-21T13:20:18.304Z,8.6
2018-02-21T13:21:19.740Z,8.4
2018-02-21T13:22:21.159Z,8.1
2018-02-21T13:23:22.595Z,7.9
2018-02-21T13:24:24.754Z,8.3
2018-02-21T13:25:26.157Z,8.5
2018-02-21T13:26:27.574Z,9.7
2018-02-21T13:27:29.024Z,10.3
2018-02-21T13:28:30.498Z,10.0
2018-02-21T13:29:31.933Z,9.4
2018-02-21T13:30:33.419Z,9.3
2018-02-21T13:31:34.939Z,9.2
2018-02-21T13:32:36.346Z,9.3
2018-02-21T13:33:37.852Z,9.1
2018-02-21T13:34:39.258Z,8.8
2018-02-21T13:35:40.672Z,8.5
2018-02-21T13:36:42.281Z,8.3
2018-02-21T13:37:43.790Z,8.2
2018-02-21T13:38:45.272Z,7.9
2018-02-21T13:39:46.708Z,8.1
2018-02-21T13:40:48.673Z,8.1
2018-02-21T13:41:49.529Z,7.9
2018-02-21T13:42:50.940Z,8.1
2018-02-21T13:43:52.356Z,8.5
2018-02-21T13:44:53.824Z,9.3
2018-02-21T13:45:55.307Z,9.7
2018-02-21T13:46:56.818Z,9.8
2018-02-21T13:47:58.226Z,9.3
2018-02-21T13:48:59.632Z,9.0
2018-02-21T13:50:01.069Z,8.6
2018-02-21T13:51:02.505Z,8.2
2018-02-21T13:52:03.921Z,8.2
2018-02-21T13:53:05.366Z,8.4
2018-02-21T13:54:06.858Z,8.9
2018-02-21T13:55:08.270Z,8.9
2018-02-21T13:56:09.815Z,9.3
2018-02-21T13:57:11.243Z,9.7
2018-02-21T13:58:12.658Z,9.9
2018-02-21T13:59:14.064Z,10.1
2018-02-21T14:00:15.483Z,10.1
2018-02-21T14:01:16.910Z,10.0
2018-02-21T14:02:18.313Z,9.9
2018-02-21T14:03:19.756Z,9.8
2018-02-21T14:04:21.241Z,10.0
2018-02-21T14:05:22.676Z,10.1
2018-02-21T14:06:24.757Z,10.3
2018-02-21T14:07:26.333Z,10.5
2018-02-21T14:08:27.748Z,10.5
2018-02-21T14:09:29.147Z,10.5
2018-02-21T14:10:30.553Z,10.0
2018-02-21T14:11:31.993Z,9.8
2018-02-21T14:12:33.453Z,10.1
2018-02-21T14:13:34.861Z,10.0
2018-02-21T14:14:36.269Z,10.0
2018-02-21T14:15:37.696Z,10.1
2018-02-21T14:16:39.116Z,10.2
2018-02-21T14:17:40.524Z,10.0
2018-02-21T14:18:42.060Z,10.0
2018-02-21T14:19:43.471Z,10.0
2018-02-21T14:20:44.888Z,10.2
2018-02-21T14:21:46.334Z,10.4
2018-02-21T14:22:48.307Z,10.2
2018-02-21T14:23:49.715Z,10.4
2018-02-21T14:24:51.205Z,10.6
2018-02-21T14:25:52.619Z,10.9
2018-02-21T14:26:54.048Z,12.1
2018-02-21T14:27:55.493Z,12.7
2018-02-21T14:28:56.966Z,13.0
2018-02-21T14:29:58.473Z,13.2
2018-02-21T14:30:59.897Z,13.0
2018-02-21T14:32:01.415Z,12.2
2018-02-21T14:33:02.841Z,12.1
2018-02-21T14:34:04.243Z,11.3
2018-02-21T14:35:05.720Z,10.9
2018-02-21T14:36:07.145Z,10.5
2018-02-21T14:37:09.574Z,10.6
2018-02-21T14:38:11.869Z,10.7
2018-02-21T14:39:13.309Z,10.7
2018-02-21T14:40:14.771Z,10.4
2018-02-21T14:41:16.188Z,10.3
2018-02-21T14:42:17.607Z,10.0
2018-02-21T14:43:19.017Z,10.0
2018-02-21T14:44:20.647Z,9.9
2018-02-21T14:45:22.142Z,9.7
2018-02-21T14:46:23.559Z,10.1
2018-02-21T14:47:24.950Z,10.2
2018-02-21T14:48:26.371Z,10.1
2018-02-21T14:49:27.774Z,9.7
2018-02-21T14:50:29.259Z,9.7
2018-02-21T14:51:30.713Z,9.9
2018-02-21T14:52:32.169Z,9.9
2018-02-21T14:53:33.627Z,9.5
2018-02-21T14:54:36.347Z,9.7
2018-02-21T14:55:37.736Z,10.0
2018-02-21T14:56:39.272Z,10.1
2018-02-21T14:57:40.682Z,9.8
2018-02-21T14:58:42.139Z,9.9
2018-02-21T14:59:43.556Z,9.3
2018-02-21T15:00:44.963Z,9.6
2018-02-21T15:01:46.363Z,9.6
2018-02-21T15:02:47.755Z,9.5
2018-02-21T15:03:49.166Z,9.2
2018-02-21T15:04:50.581Z,9.4
2018-02-21T15:05:51.986Z,9.5
2018-02-21T15:06:53.389Z,9.5
2018-02-21T15:07:54.876Z,9.2
2018-02-21T15:08:56.310Z,9.3
2018-02-21T15:09:57.731Z,9.1
2018-02-21T15:10:59.148Z,9.4
2018-02-21T15:12:00.555Z,9.5
2018-02-21T15:13:01.947Z,9.8
2018-02-21T15:14:03.349Z,9.7
2018-02-21T15:15:04.832Z,9.7
2018-02-21T15:16:06.289Z,9.5
2018-02-21T15:17:07.713Z,9.8
2018-02-21T15:18:09.132Z,9.5
2018-02-21T15:19:10.641Z,9.7
2018-02-21T15:20:12.046Z,9.7
2018-02-21T15:21:13.433Z,9.7
2018-02-21T15:22:14.854Z,9.4
2018-02-21T15:23:16.300Z,9.6
2018-02-21T15:24:19.506Z,9.5
2018-02-21T15:25:22.029Z,9.5
2018-02-21T15:26:23.861Z,9.1
2018-02-21T15:27:25.362Z,8.8
2018-02-21T15:28:26.805Z,8.8
2018-02-21T15:29:28.244Z,8.9
2018-02-21T15:30:29.642Z,8.8
2018-02-21T15:31:31.044Z,8.8
2018-02-21T15:32:32.459Z,8.7
2018-02-21T15:33:33.914Z,8.8
2018-02-21T15:34:35.491Z,8.7
2018-02-21T15:35:36.935Z,8.7
2018-02-21T15:36:38.363Z,8.6
2018-02-21T15:37:39.818Z,8.6
2018-02-21T15:38:41.305Z,8.4
2018-02-21T15:39:42.695Z,8.4
2018-02-21T15:40:44.117Z,8.2
2018-02-21T15:41:46.103Z,8.3
2018-02-21T15:42:47.523Z,8.3
2018-02-21T15:43:48.936Z,8.5
2018-02-21T15:44:50.344Z,8.6
2018-02-21T15:45:51.758Z,8.5
2018-02-21T15:46:53.162Z,8.5
2018-02-21T15:47:54.566Z,8.3
2018-02-21T15:48:55.977Z,8.3
2018-02-21T15:49:57.361Z,8.2
2018-02-21T15:50:58.767Z,8.2
2018-02-21T15:52:00.165Z,8.1
2018-02-21T15:53:01.566Z,7.9
2018-02-21T15:54:02.980Z,7.8
2018-02-21T15:55:04.389Z,7.6
2018-02-21T15:56:05.819Z,7.4
2018-02-21T15:57:07.321Z,7.3
2018-02-21T15:58:08.727Z,7.3
2018-02-21T15:59:10.136Z,7.2
2018-02-21T16:00:11.567Z,7.3
2018-02-21T16:01:12.994Z,7.4
2018-02-21T16:02:14.364Z,7.4
2018-02-21T16:03:15.773Z,7.4
2018-02-21T16:04:17.183Z,7.4
2018-02-21T16:05:18.584Z,7.3
2018-02-21T16:06:20.002Z,7.3
2018-02-21T16:07:21.485Z,7.0
2018-02-21T16:08:23.008Z,7.2
2018-02-21T16:09:24.396Z,6.7
2018-02-21T16:10:25.790Z,6.8
2018-02-21T16:11:27.178Z,6.7
2018-02-21T16:12:28.569Z,6.6
2018-02-21T16:13:29.989Z,6.5
2018-02-21T16:14:31.426Z,6.6
2018-02-21T16:15:32.846Z,6.6
2018-02-21T16:16:34.259Z,6.5
2018-02-21T16:17:35.728Z,6.3
2018-02-21T16:18:37.184Z,6.1
2018-02-21T16:19:38.660Z,6.1
2018-02-21T16:20:40.057Z,6.1
2018-02-21T16:21:41.458Z,6.3
2018-02-21T16:22:42.865Z,6.3
2018-02-21T16:23:44.269Z,6.3
2018-02-21T16:24:45.688Z,6.3
2018-02-21T16:25:47.144Z,6.3
2018-02-21T16:26:48.550Z,6.4
2018-02-21T16:27:49.954Z,6.3
2018-02-21T16:28:52.190Z,6.2
2018-02-21T16:29:52.704Z,5.9
2018-02-21T16:30:54.109Z,6.1
2018-02-21T16:31:55.507Z,5.8
2018-02-21T16:32:56.919Z,5.6
2018-02-21T16:33:58.320Z,5.4
2018-02-21T16:34:59.716Z,5.4
2018-02-21T16:36:01.130Z,5.7
2018-02-21T16:37:02.554Z,5.4
2018-02-21T16:38:03.934Z,5.5
2018-02-21T16:39:05.342Z,5.7
2018-02-21T16:40:06.834Z,5.7
2018-02-21T16:41:08.321Z,5.6
2018-02-21T16:42:09.801Z,5.7
2018-02-21T16:43:11.204Z,5.7
2018-02-21T16:44:12.599Z,5.6
2018-02-21T16:45:14.006Z,5.4
2018-02-21T16:46:15.404Z,5.4
2018-02-21T16:47:16.785Z,5.3
2018-02-21T16:48:18.180Z,5.1
2018-02-21T16:49:19.568Z,5.3
2018-02-21T16:50:20.961Z,5.2
2018-02-21T16:51:22.432Z,5.3
2018-02-21T16:52:23.837Z,5.2
2018-02-21T16:53:25.234Z,5.1
2018-02-21T16:54:26.649Z,5.1
2018-02-21T16:55:28.056Z,5.2
2018-02-21T16:56:29.460Z,5.1
2018-02-21T16:57:30.869Z,5.1
2018-02-21T16:58:32.310Z,5.1
2018-02-21T16:59:33.776Z,5.1
2018-02-21T17:00:35.526Z,5.1
2018-02-21T17:01:36.928Z,5.1
2018-02-21T17:02:38.320Z,5.1
2018-02-21T17:03:46.527Z,4.9
2018-02-21T17:04:48.696Z,4.9
2018-02-21T17:05:50.094Z,5.0
2018-02-21T17:06:51.555Z,5.0
2018-02-21T17:07:52.944Z,5.0
2018-02-21T17:08:54.351Z,5.1
2018-02-21T17:09:55.734Z,5.1
2018-02-21T17:10:57.117Z,5.1
2018-02-21T17:11:58.536Z,4.9
2018-02-21T17:13:00.076Z,4.8
2018-02-21T17:14:01.524Z,4.7
2018-02-21T17:15:02.920Z,4.7
2018-02-21T17:16:04.330Z,4.8
2018-02-21T17:17:05.786Z,4.8
2018-02-21T17:18:08.480Z,4.9
2018-02-21T17:19:09.924Z,4.7
2018-02-21T17:20:11.313Z,4.6
2018-02-21T17:21:12.704Z,4.7
2018-02-21T17:22:14.112Z,4.7
2018-02-21T17:23:15.489Z,4.6
2018-02-21T17:24:16.893Z,4.5
2018-02-21T17:25:18.282Z,4.7
2018-02-21T17:26:19.731Z,4.6
2018-02-21T17:27:21.135Z,4.7
2018-02-21T17:28:22.523Z,4.7
2018-02-21T17:29:23.931Z,4.8
2018-02-21T17:30:25.451Z,4.6
2018-02-21T17:31:26.784Z,4.6
2018-02-21T17:32:28.994Z,4.5
2018-02-21T17:33:30.570Z,4.6
2018-02-21T17:34:31.963Z,4.6
2018-02-21T17:35:33.904Z,4.6
2018-02-21T17:36:35.843Z,4.6
2018-02-21T17:37:37.248Z,4.6
2018-02-21T17:38:38.682Z,4.6
2018-02-21T17:39:40.145Z,4.5
2018-02-21T17:40:41.556Z,4.6
2018-02-21T17:41:42.947Z,4.5
2018-02-21T17:42:44.337Z,4.7
2018-02-21T17:43:45.728Z,4.6
2018-02-21T17:44:47.107Z,4.5
2018-02-21T17:45:48.518Z,4.6
2018-02-21T17:46:49.902Z,4.4
2018-02-21T17:47:51.320Z,4.6
2018-02-21T17:48:52.721Z,4.4
2018-02-21T17:49:54.109Z,4.4
2018-02-21T17:50:55.567Z,4.2
2018-02-21T17:51:56.987Z,4.3
2018-02-21T17:52:58.390Z,4.2
2018-02-21T17:53:59.782Z,4.3
2018-02-21T17:55:01.175Z,4.2
2018-02-21T17:56:02.586Z,4.4
2018-02-21T17:57:03.965Z,4.4
2018-02-21T17:58:05.370Z,4.2
2018-02-21T17:59:06.758Z,4.2
2018-02-21T18:00:08.171Z,4.4
2018-02-21T18:01:09.662Z,4.2
2018-02-21T18:02:11.058Z,4.4
2018-02-21T18:03:12.498Z,4.2
2018-02-21T18:04:13.885Z,4.2
2018-02-21T18:05:15.287Z,4.2
2018-02-21T18:06:16.703Z,4.3
2018-02-21T18:07:18.136Z,4.3
2018-02-21T18:08:19.526Z,4.4
2018-02-21T18:09:20.920Z,4.4
2018-02-21T18:10:22.310Z,4.4
2018-02-21T18:11:23.754Z,4.2
2018-02-21T18:12:25.212Z,4.3
2018-02-21T18:13:26.767Z,4.2
2018-02-21T18:14:28.191Z,4.2
2018-02-21T18:15:29.586Z,4.2
2018-02-21T18:16:30.985Z,4.2
2018-02-21T18:17:32.382Z,4.2
2018-02-21T18:18:33.787Z,4.2
2018-02-21T18:19:35.189Z,4.1
2018-02-21T18:20:36.599Z,4.1
2018-02-21T18:21:37.991Z,4.0
2018-02-21T18:22:39.467Z,4.0
2018-02-21T18:23:41.004Z,4.0
2018-02-21T18:24:42.541Z,3.9
2018-02-21T18:25:43.966Z,3.9
2018-02-21T18:26:45.355Z,4.1
2018-02-21T18:27:46.748Z,4.0
2018-02-21T18:28:48.182Z,3.9
2018-02-21T18:29:49.651Z,3.8
2018-02-21T18:30:51.070Z,3.7
2018-02-21T18:31:52.469Z,3.7
2018-02-21T18:32:53.978Z,3.8
2018-02-21T18:33:55.431Z,3.8
2018-02-21T18:34:56.828Z,3.8
2018-02-21T18:35:58.254Z,3.5
2018-02-21T18:36:59.634Z,3.5
2018-02-21T18:38:01.092Z,3.6
2018-02-21T18:39:02.496Z,3.7
2018-02-21T18:40:03.933Z,3.5
2018-02-21T18:41:05.344Z,3.8
2018-02-21T18:42:06.790Z,3.6
2018-02-21T18:43:08.173Z,3.8
2018-02-21T18:44:09.626Z,3.7
2018-02-21T18:45:11.030Z,3.8
2018-02-21T18:46:12.461Z,3.7
2018-02-21T18:47:13.872Z,3.6
2018-02-21T18:48:15.302Z,3.7
2018-02-21T18:49:16.713Z,3.7
2018-02-21T18:50:18.099Z,3.6
2018-02-21T18:51:19.491Z,3.7
2018-02-21T18:52:20.901Z,3.7
2018-02-21T18:53:22.291Z,3.7
2018-02-21T18:54:23.766Z,3.7
2018-02-21T18:55:25.198Z,3.7
2018-02-21T18:56:26.602Z,3.7
2018-02-21T18:57:27.998Z,3.7
2018-02-21T18:58:29.391Z,3.6
2018-02-21T18:59:30.798Z,3.7
2018-02-21T19:00:32.213Z,3.7
2018-02-21T19:01:33.617Z,3.5
2018-02-21T19:02:35.077Z,3.5
2018-02-21T19:03:36.498Z,3.4
2018-02-21T19:04:37.932Z,3.6
2018-02-21T19:05:39.400Z,3.5
2018-02-21T19:06:40.780Z,3.5
2018-02-21T19:07:42.175Z,3.4
2018-02-21T19:08:43.563Z,3.1
2018-02-21T19:09:44.950Z,3.3
2018-02-21T19:10:46.338Z,3.2
2018-02-21T19:11:47.711Z,3.1
2018-02-21T19:12:49.112Z,3.1
2018-02-21T19:13:50.498Z,3.5
2018-02-21T19:14:51.956Z,3.5
2018-02-21T19:15:53.341Z,3.4
2018-02-21T19:16:54.746Z,3.4
2018-02-21T19:17:56.150Z,3.3
2018-02-21T19:18:57.539Z,3.1
2018-02-21T19:19:58.951Z,3.2
2018-02-21T19:21:00.368Z,3.2
2018-02-21T19:22:01.771Z,3.3
2018-02-21T19:23:03.140Z,3.2
2018-02-21T19:24:04.529Z,3.3
2018-02-21T19:25:05.927Z,3.2
2018-02-21T19:26:07.424Z,3.3
2018-02-21T19:27:08.821Z,3.2
2018-02-21T19:28:10.229Z,3.3
2018-02-21T19:29:11.630Z,3.3
2018-02-21T19:30:13.019Z,3.5
2018-02-21T19:31:14.427Z,3.5
2018-02-21T19:32:15.809Z,3.4
2018-02-21T19:33:17.211Z,3.4
2018-02-21T19:34:18.623Z,3.3
2018-02-21T19:35:20.068Z,3.3
2018-02-21T19:36:21.478Z,3.4
2018-02-21T19:37:22.876Z,3.5
2018-02-21T19:38:24.327Z,3.4
2018-02-21T19:39:25.780Z,3.3
2018-02-21T19:40:27.165Z,3.4
2018-02-21T19:41:28.564Z,3.2
2018-02-21T19:42:29.952Z,3.3
2018-02-21T19:43:31.755Z,3.2
2018-02-21T19:44:33.175Z,3.1
2018-02-21T19:45:34.604Z,3.2
2018-02-21T19:46:35.988Z,3.1
2018-02-21T19:47:37.455Z,3.2
2018-02-21T19:48:38.812Z,3.1
2018-02-21T19:49:40.218Z,3.4
2018-02-21T19:50:41.614Z,3.2
2018-02-21T19:51:43.009Z,3.2
2018-02-21T19:52:44.434Z,3.2
2018-02-21T19:53:45.856Z,3.3
2018-02-21T19:54:47.269Z,3.3
2018-02-21T19:55:48.656Z,3.3
2018-02-21T19:56:50.043Z,3.3
2018-02-21T19:57:51.504Z,3.1
2018-02-21T19:58:52.933Z,3.3
2018-02-21T19:59:54.345Z,3.4
2018-02-21T20:00:55.834Z,3.2
2018-02-21T20:01:57.254Z,3.3
2018-02-21T20:02:58.660Z,3.1
2018-02-21T20:04:00.056Z,3.2
2018-02-21T20:05:01.458Z,3.2
2018-02-21T20:06:02.867Z,3.2
2018-02-21T20:07:04.248Z,3.3
2018-02-21T20:08:05.631Z,3.1
2018-02-21T20:09:07.091Z,3.3
2018-02-21T20:10:08.438Z,3.3
2018-02-21T20:11:09.870Z,3.1
2018-02-21T20:12:11.258Z,3.1
2018-02-21T20:13:12.644Z,3.3
2018-02-21T20:14:14.056Z,3.2
2018-02-21T20:15:15.443Z,3.2
2018-02-21T20:16:16.830Z,3.3
2018-02-21T20:17:18.244Z,3.2
2018-02-21T20:18:19.732Z,3.3
2018-02-21T20:19:21.146Z,3.2
2018-02-21T20:20:22.544Z,3.1
2018-02-21T20:21:23.944Z,3.2
2018-02-21T20:22:25.334Z,3.2
2018-02-21T20:23:26.731Z,3.1
2018-02-21T20:24:28.124Z,3.2
2018-02-21T20:25:29.507Z,3.0
2018-02-21T20:26:30.901Z,3.1
2018-02-21T20:27:33.401Z,3.1
2018-02-21T20:28:34.797Z,3.0
2018-02-21T20:29:36.193Z,3.0
2018-02-21T20:30:37.848Z,3.0
2018-02-21T20:31:39.398Z,3.0
2018-02-21T20:32:40.801Z,3.0
2018-02-21T20:33:42.244Z,3.0
2018-02-21T20:34:43.646Z,3.1
2018-02-21T20:35:45.050Z,3.1
2018-02-21T20:36:46.456Z,3.2
2018-02-21T20:37:47.841Z,3.1
2018-02-21T20:38:49.258Z,3.0
2018-02-21T20:39:50.660Z,3.0
2018-02-21T20:40:52.066Z,2.8
2018-02-21T20:41:53.441Z,2.9
2018-02-21T20:42:54.948Z,2.8
2018-02-21T20:43:56.274Z,2.7
2018-02-21T20:44:57.663Z,2.9
2018-02-21T20:45:59.060Z,2.7
2018-02-21T20:47:00.460Z,2.9
2018-02-21T20:48:01.861Z,2.7
2018-02-21T20:49:03.267Z,2.7
2018-02-21T20:50:04.684Z,2.7
2018-02-21T20:51:06.126Z,2.7
2018-02-21T20:52:07.540Z,2.7
2018-02-21T20:53:08.931Z,2.7
2018-02-21T20:54:10.343Z,2.8
2018-02-21T20:55:11.730Z,2.8
2018-02-21T20:56:13.122Z,2.7
2018-02-21T20:57:15.076Z,2.7
2018-02-21T20:58:16.818Z,2.7
2018-02-21T20:59:21.339Z,2.7
2018-02-21T21:00:22.837Z,2.7
2018-02-21T21:01:24.242Z,2.7
2018-02-21T21:02:25.653Z,2.7
2018-02-21T21:03:27.058Z,2.6
2018-02-21T21:04:28.782Z,2.7
2018-02-21T21:05:30.174Z,2.6
2018-02-21T21:06:31.564Z,2.5
2018-02-21T21:07:32.955Z,2.6
2018-02-21T21:08:34.348Z,2.6
2018-02-21T21:09:35.805Z,2.6
2018-02-21T21:10:37.211Z,2.7
2018-02-21T21:11:38.640Z,2.7
2018-02-21T21:12:40.051Z,2.8
2018-02-21T21:13:41.490Z,2.8
2018-02-21T21:14:42.908Z,2.7
2018-02-21T21:15:44.333Z,2.6
2018-02-21T21:16:45.739Z,2.6
2018-02-21T21:17:47.160Z,2.5
2018-02-21T21:18:48.560Z,2.6
2018-02-21T21:19:49.951Z,2.6
2018-02-21T21:20:51.341Z,2.5
2018-02-21T21:21:52.738Z,2.6
2018-02-21T21:22:54.131Z,2.7
2018-02-21T21:23:55.571Z,2.7
2018-02-21T21:24:57.161Z,2.6
2018-02-21T21:25:58.549Z,2.4
2018-02-21T21:26:59.932Z,2.4
2018-02-21T21:28:01.321Z,2.6
2018-02-21T21:29:02.738Z,2.4
2018-02-21T21:30:04.194Z,2.4
2018-02-21T21:31:05.663Z,2.4
2018-02-21T21:32:07.036Z,2.5
2018-02-21T21:33:08.440Z,2.5
2018-02-21T21:34:09.919Z,2.5
2018-02-21T21:35:11.307Z,2.5
2018-02-21T21:36:12.692Z,2.5
2018-02-21T21:37:14.080Z,2.3
2018-02-21T21:38:15.470Z,2.4
2018-02-21T21:39:16.911Z,2.4
2018-02-21T21:40:18.295Z,2.3
2018-02-21T21:41:19.805Z,2.4
2018-02-21T21:42:21.218Z,2.3
2018-02-21T21:43:22.614Z,2.4
2018-02-21T21:44:24.099Z,2.4
2018-02-21T21:45:25.517Z,2.5
2018-02-21T21:46:26.912Z,2.3
2018-02-21T21:47:28.306Z,2.2
2018-02-21T21:48:29.875Z,2.2
2018-02-21T21:49:32.869Z,2.4
2018-02-21T21:50:32.697Z,2.3
2018-02-21T21:51:34.094Z,2.2
2018-02-21T21:52:35.561Z,2.3
2018-02-21T21:53:36.981Z,2.2
2018-02-21T21:54:38.514Z,2.2
2018-02-21T21:55:40.413Z,2.1
2018-02-21T21:56:41.802Z,2.1
2018-02-21T21:57:43.220Z,2.3
2018-02-21T21:58:44.873Z,2.1
2018-02-21T21:59:46.288Z,2.3
2018-02-21T22:00:47.867Z,2.3
2018-02-21T22:01:49.541Z,2.1
2018-02-21T22:02:51.165Z,2.1
2018-02-21T22:03:52.549Z,2.1
2018-02-21T22:04:53.930Z,2.1
2018-02-21T22:05:55.408Z,2.2
2018-02-21T22:06:56.810Z,2.0
2018-02-21T22:07:58.288Z,2.1
2018-02-21T22:08:59.866Z,2.0
2018-02-21T22:10:01.260Z,2.1
2018-02-21T22:11:02.645Z,2.1
2018-02-21T22:12:04.057Z,2.0
2018-02-21T22:13:06.230Z,2.1
2018-02-21T22:14:07.811Z,2.1
2018-02-21T22:15:09.306Z,2.1
2018-02-21T22:16:10.741Z,2.1
2018-02-21T22:17:12.173Z,2.1
2018-02-21T22:18:13.561Z,2.1
2018-02-21T22:19:14.975Z,2.1
2018-02-21T22:20:16.387Z,1.9
2018-02-21T22:21:17.785Z,2.1
2018-02-21T22:22:19.182Z,2.2
2018-02-21T22:23:20.587Z,2.0
2018-02-21T22:24:21.972Z,2.2
2018-02-21T22:25:23.378Z,2.0
2018-02-21T22:26:24.777Z,2.1
2018-02-21T22:27:26.166Z,2.1
2018-02-21T22:28:27.650Z,2.1
2018-02-21T22:29:29.074Z,2.0
2018-02-21T22:30:30.475Z,2.0
2018-02-21T22:31:31.896Z,2.0
2018-02-21T22:32:33.284Z,2.0
2018-02-21T22:33:35.464Z,2.0
2018-02-21T22:34:36.861Z,2.0
2018-02-21T22:35:38.301Z,2.0
2018-02-21T22:36:39.697Z,2.0
2018-02-21T22:37:41.106Z,2.1
2018-02-21T22:38:42.482Z,2.1
2018-02-21T22:39:43.947Z,2.0
2018-02-21T22:40:45.344Z,2.1
2018-02-21T22:41:46.735Z,2.1
2018-02-21T22:42:48.128Z,2.1
2018-02-21T22:43:49.516Z,2.2
2018-02-21T22:44:50.910Z,2.0
2018-02-21T22:45:52.328Z,2.1
2018-02-21T22:46:53.728Z,2.3
2018-02-21T22:47:55.106Z,2.1
2018-02-21T22:48:56.516Z,2.2
2018-02-21T22:49:57.911Z,2.1
2018-02-21T22:50:59.299Z,2.2
2018-02-21T22:52:00.704Z,2.3
2018-02-21T22:53:02.094Z,1.9
2018-02-21T22:54:03.494Z,2.0
2018-02-21T22:55:04.879Z,2.0
2018-02-21T22:56:06.278Z,1.9
2018-02-21T22:57:07.678Z,1.8
2018-02-21T22:58:09.061Z,1.9
2018-02-21T22:59:10.471Z,2.0
2018-02-21T23:00:11.864Z,2.0
2018-02-21T23:01:13.276Z,1.9
2018-02-21T23:02:14.687Z,2.0
2018-02-21T23:03:16.076Z,2.0
2018-02-21T23:04:17.478Z,1.9
2018-02-21T23:05:19.680Z,2.0
2018-02-21T23:06:20.264Z,2.0
2018-02-21T23:07:21.684Z,1.9
2018-02-21T23:08:23.077Z,1.9
2018-02-21T23:09:24.483Z,1.9
2018-02-21T23:10:25.864Z,1.9
2018-02-21T23:11:27.340Z,1.9
2018-02-21T23:12:28.706Z,1.9
2018-02-21T23:13:30.100Z,1.9
2018-02-21T23:14:31.493Z,1.7
2018-02-21T23:15:32.886Z,1.7
2018-02-21T23:16:34.266Z,1.8
2018-02-21T23:17:35.669Z,1.9
2018-02-21T23:18:37.076Z,1.7
2018-02-21T23:19:38.452Z,1.5
2018-02-21T23:20:39.977Z,1.6
2018-02-21T23:21:42.107Z,1.6
2018-02-21T23:22:43.559Z,1.6
2018-02-21T23:23:44.954Z,1.5
2018-02-21T23:24:46.360Z,1.6
2018-02-21T23:25:47.763Z,1.6
2018-02-21T23:26:49.149Z,1.5
2018-02-21T23:27:50.532Z,1.5
2018-02-21T23:28:51.935Z,1.6
2018-02-21T23:29:53.328Z,1.5
2018-02-21T23:30:54.719Z,1.6
2018-02-21T23:31:56.210Z,1.5
2018-02-21T23:32:57.605Z,1.5
2018-02-21T23:33:58.994Z,1.3
2018-02-21T23:35:00.433Z,1.5
2018-02-21T23:36:01.839Z,1.4
2018-02-21T23:37:03.236Z,1.5
2018-02-21T23:38:04.653Z,1.4
2018-02-21T23:39:06.048Z,1.5
2018-02-21T23:40:07.458Z,1.6
2018-02-21T23:41:08.877Z,1.4
2018-02-21T23:42:10.236Z,1.4
2018-02-21T23:43:11.735Z,1.4
2018-02-21T23:44:13.120Z,1.4
2018-02-21T23:45:14.528Z,1.3
2018-02-21T23:46:15.928Z,1.3
2018-02-21T23:47:17.334Z,1.2
2018-02-21T23:48:18.722Z,1.0
2018-02-21T23:49:20.148Z,1.2
2018-02-21T23:50:21.628Z,1.3
2018-02-21T23:51:23.059Z,1.2
2018-02-21T23:52:24.463Z,1.1
2018-02-21T23:53:25.877Z,1.2
2018-02-21T23:54:27.347Z,1.3
2018-02-21T23:55:28.745Z,1.2
2018-02-21T23:56:30.151Z,1.2
2018-02-21T23:57:31.576Z,1.2
2018-02-21T23:58:32.972Z,1.0
2018-02-21T23:59:34.362Z,1.1
